Mostoles, Spain
Current Conditions -  °F | °C
As of 12:00 PM on Sunday 21 Dec 2014 (Local Time) from LEVS Reporting Station
Clear Clear  
Wind Chill: 52°   Ceiling: Unl
Heat Index: 52°   Visibility: 6mi
Dew Point: 41°   Wind: 5mph
Humidity: 67%   Direction: 10°N
Pressure: 30.5"   Gusts: NA
Location:  40.32°N, 3.87°W
Report Text: LEVS 211100Z 01004KT 330V090 CAVOK 11/05 Q1033
Loading
Personal Weather Stations






























Interactive Weather Map New forecast layout! Learn more

10-Day Weather Forecast

Advertisements
Track Severe Weather on mobile